createdAt,value
2019-04-13T00:02:32.303Z,4.40
2019-04-13T00:05:38.995Z,4.40
2019-04-13T00:08:13.284Z,4.30
2019-04-13T00:11:02.816Z,4.30
2019-04-13T00:13:33.248Z,4.30
2019-04-13T00:16:04.052Z,4.30
2019-04-13T00:18:34.463Z,4.30
2019-04-13T00:21:04.932Z,4.30
2019-04-13T00:23:35.284Z,4.30
2019-04-13T00:26:06.732Z,4.30
2019-04-13T00:28:37.338Z,4.30
2019-04-13T00:31:07.866Z,4.30
2019-04-13T00:33:40.701Z,4.30
2019-04-13T00:36:12.780Z,4.30
2019-04-13T00:38:43.575Z,4.30
2019-04-13T00:41:14.493Z,4.20
2019-04-13T00:43:45.443Z,4.20
2019-04-13T00:46:16.185Z,4.20
2019-04-13T00:48:47.199Z,4.20
2019-04-13T00:51:18.588Z,4.10
2019-04-13T00:53:49.188Z,4.10
2019-04-13T00:56:21.399Z,4.10
2019-04-13T00:58:51.907Z,4.00
2019-04-13T01:01:22.634Z,4.00
2019-04-13T01:03:53.368Z,3.90
2019-04-13T01:06:24.778Z,3.90
2019-04-13T01:08:56.753Z,3.90
2019-04-13T01:11:27.800Z,3.90
2019-04-13T01:13:58.357Z,3.80
2019-04-13T01:16:28.815Z,3.80
2019-04-13T01:19:01.301Z,3.80
2019-04-13T01:21:32.851Z,3.90
2019-04-13T01:24:03.256Z,3.90
2019-04-13T01:26:33.772Z,3.90
2019-04-13T01:29:04.163Z,3.80
2019-04-13T01:31:34.777Z,3.70
2019-04-13T01:34:05.603Z,3.70
2019-04-13T01:36:36.240Z,3.50
2019-04-13T01:39:11.554Z,3.60
2019-04-13T01:41:44.821Z,3.50
2019-04-13T01:44:15.290Z,3.50
2019-04-13T01:46:46.108Z,3.50
2019-04-13T01:49:16.751Z,3.40
2019-04-13T01:51:47.474Z,3.50
2019-04-13T01:54:19.588Z,3.50
2019-04-13T01:56:50.419Z,3.50
2019-04-13T01:59:20.832Z,3.50
2019-04-13T02:02:05.725Z,3.50
2019-04-13T02:04:51.997Z,3.50
2019-04-13T02:07:32.868Z,3.50
2019-04-13T02:10:16.417Z,3.50
2019-04-13T02:12:47.231Z,3.40
2019-04-13T02:15:17.651Z,3.40
2019-04-13T02:17:50.494Z,3.40
2019-04-13T02:20:21.033Z,3.40
2019-04-13T02:22:51.377Z,3.40
2019-04-13T02:25:22.522Z,3.50
2019-04-13T02:27:53.152Z,3.50
2019-04-13T02:30:26.118Z,3.40
2019-04-13T02:32:58.246Z,3.40
2019-04-13T02:35:35.874Z,3.40
2019-04-13T02:38:01.515Z,3.30
2019-04-13T02:40:33.171Z,3.30
2019-04-13T02:43:03.640Z,3.30
2019-04-13T02:45:35.337Z,3.30
2019-04-13T02:48:05.754Z,3.30
2019-04-13T02:50:36.754Z,3.30
2019-04-13T02:53:07.811Z,3.30
2019-04-13T02:55:38.236Z,3.30
2019-04-13T02:58:08.694Z,3.30
2019-04-13T03:00:39.034Z,3.30
2019-04-13T03:03:11.655Z,3.30
2019-04-13T03:05:47.232Z,3.30
2019-04-13T03:08:14.395Z,3.30
2019-04-13T03:10:45.187Z,3.30
2019-04-13T03:13:17.763Z,3.40
2019-04-13T03:16:16.623Z,3.40
2019-04-13T03:19:04.850Z,3.30
2019-04-13T03:21:35.681Z,3.30
2019-04-13T03:24:06.090Z,3.20
2019-04-13T03:26:37.281Z,3.30
2019-04-13T03:29:08.119Z,3.20
2019-04-13T03:31:42.269Z,3.20
2019-04-13T03:34:13.097Z,3.20
2019-04-13T03:36:43.497Z,3.20
2019-04-13T03:39:14.332Z,3.20
2019-04-13T03:41:44.708Z,3.30
2019-04-13T03:44:15.043Z,3.30
2019-04-13T03:46:45.742Z,3.40
2019-04-13T03:49:18.238Z,3.30
2019-04-13T03:51:48.613Z,3.40
2019-04-13T03:54:21.525Z,3.40
2019-04-13T03:56:51.928Z,3.40
2019-04-13T03:59:23.033Z,3.40
2019-04-13T04:01:53.371Z,3.40
2019-04-13T04:04:24.106Z,3.40
2019-04-13T04:06:54.855Z,3.40
2019-04-13T04:09:25.217Z,3.40
2019-04-13T04:11:57.550Z,3.40
2019-04-13T04:14:29.848Z,3.50
2019-04-13T04:17:00.321Z,3.40
2019-04-13T04:19:30.766Z,3.40
2019-04-13T04:22:01.296Z,3.40
2019-04-13T04:24:31.940Z,3.40
2019-04-13T04:27:05.006Z,3.40
2019-04-13T04:29:35.440Z,3.40
2019-04-13T04:32:05.978Z,3.40
2019-04-13T04:34:36.742Z,3.40
2019-04-13T04:37:07.845Z,3.40
2019-04-13T04:39:38.248Z,3.40
2019-04-13T04:42:08.573Z,3.40
2019-04-13T04:44:39.528Z,3.40
2019-04-13T04:47:10.867Z,3.40
2019-04-13T04:49:44.836Z,3.40
2019-04-13T04:52:19.123Z,3.40
2019-04-13T04:54:57.263Z,3.40
2019-04-13T04:57:30.617Z,3.40
2019-04-13T05:00:01.015Z,3.40
2019-04-13T05:02:33.217Z,3.40
2019-04-13T05:05:05.988Z,3.40
2019-04-13T05:07:36.415Z,3.40
2019-04-13T05:10:06.950Z,3.40
2019-04-13T05:12:37.369Z,3.40
2019-04-13T05:15:08.827Z,3.50
2019-04-13T05:17:39.290Z,3.50
2019-04-13T05:20:10.803Z,3.50
2019-04-13T05:22:41.406Z,3.50
2019-04-13T05:25:11.998Z,3.50
2019-04-13T05:27:43.187Z,3.50
2019-04-13T05:30:14.247Z,3.50
2019-04-13T05:32:45.104Z,3.50
2019-04-13T05:35:15.649Z,3.60
2019-04-13T05:37:46.264Z,3.60
2019-04-13T05:40:16.674Z,3.60
2019-04-13T05:42:49.276Z,3.60
2019-04-13T05:45:19.744Z,3.60
2019-04-13T05:47:50.225Z,3.60
2019-04-13T05:50:20.833Z,3.60
2019-04-13T05:52:54.492Z,3.60
2019-04-13T05:55:25.094Z,3.60
2019-04-13T05:57:55.913Z,3.70
2019-04-13T06:00:26.352Z,3.70
2019-04-13T06:02:58.559Z,3.70
2019-04-13T06:05:29.166Z,3.70
2019-04-13T06:07:59.791Z,3.70
2019-04-13T06:10:30.228Z,3.80
2019-04-13T06:13:03.515Z,3.80
2019-04-13T06:15:35.786Z,3.80
2019-04-13T06:18:20.412Z,3.80
2019-04-13T06:20:41.540Z,3.90
2019-04-13T06:23:12.131Z,3.90
2019-04-13T06:25:45.471Z,3.90
2019-04-13T06:28:16.126Z,3.90
2019-04-13T06:31:24.052Z,3.90
2019-04-13T06:34:13.983Z,3.90
2019-04-13T06:36:45.142Z,3.90
2019-04-13T06:39:18.418Z,3.90
2019-04-13T06:42:02.229Z,3.90
2019-04-13T06:44:36.371Z,3.90
2019-04-13T06:47:07.044Z,3.90
2019-04-13T06:49:37.792Z,4.00
2019-04-13T06:52:08.269Z,4.00
2019-04-13T06:54:40.864Z,4.00
2019-04-13T06:57:13.102Z,4.00
2019-04-13T06:59:44.358Z,4.00
2019-04-13T07:02:15.192Z,4.00
2019-04-13T07:04:48.002Z,4.10
2019-04-13T07:07:28.419Z,4.10
2019-04-13T07:10:30.548Z,4.10
2019-04-13T07:13:06.978Z,4.10
2019-04-13T07:15:46.198Z,4.10
2019-04-13T07:18:12.849Z,4.10
2019-04-13T07:20:52.065Z,4.20
2019-04-13T07:23:25.406Z,4.30
2019-04-13T07:25:55.801Z,4.40
2019-04-13T07:28:26.332Z,4.60
2019-04-13T07:31:00.898Z,4.70
2019-04-13T07:33:30.352Z,4.90
2019-04-13T07:36:01.053Z,5.00
2019-04-13T07:38:32.151Z,5.00
2019-04-13T07:41:03.787Z,5.10
2019-04-13T07:43:34.243Z,5.10
2019-04-13T07:46:17.146Z,5.10
2019-04-13T07:48:56.863Z,5.10
2019-04-13T07:51:46.134Z,5.30
2019-04-13T07:54:16.702Z,5.40
2019-04-13T07:56:48.935Z,5.40
2019-04-13T07:59:19.351Z,5.50
2019-04-13T08:01:56.707Z,5.70
2019-04-13T08:04:24.835Z,5.80
2019-04-13T08:06:55.217Z,5.90
2019-04-13T08:09:26.222Z,6.10
2019-04-13T08:11:57.113Z,6.10
2019-04-13T08:14:30.535Z,6.10
2019-04-13T08:17:06.141Z,6.20
2019-04-13T08:19:42.199Z,6.20
2019-04-13T08:22:12.731Z,6.10
2019-04-13T08:24:43.182Z,6.20
2019-04-13T08:27:13.574Z,6.20
2019-04-13T08:29:44.820Z,6.30
2019-04-13T08:32:15.689Z,6.30
2019-04-13T08:34:46.237Z,6.30
2019-04-13T08:37:17.105Z,6.30
2019-04-13T08:40:01.607Z,6.20
2019-04-13T08:42:20.594Z,6.10
2019-04-13T08:44:52.633Z,6.20
2019-04-13T08:47:23.090Z,6.20
2019-04-13T08:49:53.665Z,6.30
2019-04-13T08:52:24.444Z,6.40
2019-04-13T08:54:54.863Z,6.50
2019-04-13T08:57:25.471Z,6.60
2019-04-13T08:59:55.921Z,6.60
2019-04-13T09:02:26.351Z,6.50
2019-04-13T09:04:57.316Z,6.50
2019-04-13T09:07:27.804Z,6.60
2019-04-13T09:09:59.440Z,6.70
2019-04-13T09:12:30.704Z,6.80
2019-04-13T09:15:01.916Z,6.90
2019-04-13T09:17:39.815Z,7.00
2019-04-13T09:20:35.312Z,7.00
2019-04-13T09:23:08.818Z,7.00
2019-04-13T09:25:39.609Z,7.00
2019-04-13T09:28:11.978Z,7.10
2019-04-13T09:30:42.605Z,7.20
2019-04-13T09:33:15.343Z,7.40
2019-04-13T09:35:49.361Z,7.40
2019-04-13T09:38:20.228Z,7.30
2019-04-13T09:40:51.371Z,7.40
2019-04-13T09:43:30.432Z,7.50
2019-04-13T09:46:06.165Z,7.40
2019-04-13T09:48:34.841Z,7.30
2019-04-13T09:51:05.680Z,7.30
2019-04-13T09:53:39.304Z,7.40
2019-04-13T09:56:15.524Z,7.50
2019-04-13T09:58:48.212Z,7.40
2019-04-13T10:01:18.680Z,7.50
2019-04-13T10:03:52.162Z,7.70
2019-04-13T10:06:27.025Z,7.90
2019-04-13T10:08:58.695Z,8.00
2019-04-13T10:11:52.901Z,8.00
2019-04-13T10:14:45.826Z,8.10
2019-04-13T10:17:31.233Z,8.10
2019-04-13T10:20:02.526Z,8.10
2019-04-13T10:22:39.951Z,7.90
2019-04-13T10:25:13.762Z,7.80
2019-04-13T10:27:49.346Z,7.70
2019-04-13T10:30:22.269Z,7.60
2019-04-13T10:32:57.783Z,7.70
2019-04-13T10:35:32.131Z,7.80
2019-04-13T10:38:05.254Z,7.90
2019-04-13T10:40:42.640Z,7.90
2019-04-13T10:43:16.669Z,7.90
2019-04-13T10:46:25.003Z,8.00
2019-04-13T10:49:14.601Z,8.00
2019-04-13T10:51:56.018Z,8.00
2019-04-13T10:54:27.000Z,7.90
2019-04-13T10:56:59.648Z,7.80
2019-04-13T10:59:33.800Z,7.80
2019-04-13T11:02:22.135Z,7.90
2019-04-13T11:04:51.224Z,8.00
2019-04-13T11:07:27.385Z,8.20
2019-04-13T11:10:02.753Z,8.30
2019-04-13T11:12:36.097Z,8.30
2019-04-13T11:15:07.606Z,8.20
2019-04-13T11:17:38.191Z,8.00
2019-04-13T11:20:14.673Z,7.90
2019-04-13T11:22:44.075Z,7.90
2019-04-13T11:25:21.469Z,8.10
2019-04-13T11:27:55.986Z,8.20
2019-04-13T11:30:34.833Z,8.40
2019-04-13T11:33:08.151Z,8.60
2019-04-13T11:35:42.293Z,8.70
2019-04-13T11:38:18.459Z,8.80
2019-04-13T11:40:49.100Z,8.80
2019-04-13T11:43:36.754Z,8.80
2019-04-13T11:46:32.225Z,8.90
2019-04-13T11:49:07.231Z,8.90
2019-04-13T11:51:38.983Z,8.80
2019-04-13T11:54:09.655Z,8.70
2019-04-13T11:56:40.181Z,8.80
2019-04-13T11:59:12.524Z,8.80
2019-04-13T12:01:58.123Z,8.80
2019-04-13T12:05:02.751Z,8.90
2019-04-13T12:07:47.285Z,8.90
2019-04-13T12:10:45.790Z,8.90
2019-04-13T12:13:26.698Z,8.90
2019-04-13T12:16:17.252Z,9.00
2019-04-13T12:19:05.639Z,9.00
2019-04-13T12:21:47.297Z,9.10
2019-04-13T12:24:21.221Z,9.20
2019-04-13T12:26:54.094Z,9.30
2019-04-13T12:29:25.240Z,9.20
2019-04-13T12:31:56.093Z,9.20
2019-04-13T12:34:28.501Z,9.20
2019-04-13T12:37:01.055Z,9.10
2019-04-13T12:39:34.142Z,9.00
2019-04-13T12:42:07.780Z,9.00
2019-04-13T12:44:40.986Z,9.00
2019-04-13T12:47:19.530Z,9.00
2019-04-13T12:49:49.996Z,9.00
2019-04-13T12:52:20.552Z,9.00
2019-04-13T12:54:52.081Z,9.00
2019-04-13T12:57:22.597Z,9.00
2019-04-13T12:59:53.463Z,8.90
2019-04-13T13:02:39.447Z,8.90
2019-04-13T13:05:17.252Z,8.90
2019-04-13T13:07:47.812Z,8.80
2019-04-13T13:10:24.320Z,8.70
2019-04-13T13:12:50.860Z,8.70
2019-04-13T13:15:23.128Z,8.60
2019-04-13T13:17:54.492Z,8.60
2019-04-13T13:20:25.544Z,8.60
2019-04-13T13:22:56.162Z,8.60
2019-04-13T13:25:26.730Z,8.60
2019-04-13T13:27:57.247Z,8.70
2019-04-13T13:30:27.714Z,8.80
2019-04-13T13:32:59.165Z,8.90
2019-04-13T13:35:32.361Z,9.10
2019-04-13T13:38:05.063Z,9.20
2019-04-13T13:40:37.098Z,9.20
2019-04-13T13:43:06.540Z,9.30
2019-04-13T13:45:36.939Z,9.40
2019-04-13T13:48:07.437Z,9.30
2019-04-13T13:50:40.406Z,9.20
2019-04-13T13:53:13.318Z,9.20
2019-04-13T13:55:44.803Z,9.20
2019-04-13T13:58:18.666Z,9.20
2019-04-13T14:01:23.541Z,9.20
2019-04-13T14:03:54.384Z,9.20
2019-04-13T14:06:24.879Z,9.30
2019-04-13T14:08:55.274Z,9.40
2019-04-13T14:11:30.840Z,9.50
2019-04-13T14:14:01.677Z,9.50
2019-04-13T14:16:32.107Z,9.50
2019-04-13T14:19:02.693Z,9.40
2019-04-13T14:21:33.708Z,9.40
2019-04-13T14:24:06.562Z,9.40
2019-04-13T14:26:38.985Z,9.30
2019-04-13T14:29:12.118Z,9.30
2019-04-13T14:31:42.671Z,9.20
2019-04-13T14:34:13.245Z,9.20
2019-04-13T14:36:43.849Z,9.30
2019-04-13T14:39:19.358Z,9.40
2019-04-13T14:41:51.795Z,9.50
2019-04-13T14:44:25.363Z,9.50
2019-04-13T14:46:56.144Z,9.50
2019-04-13T14:49:31.226Z,9.40
2019-04-13T14:52:03.076Z,9.30
2019-04-13T14:54:33.702Z,9.20
2019-04-13T14:57:09.145Z,9.20
2019-04-13T14:59:49.312Z,9.20
2019-04-13T15:02:19.518Z,9.20
2019-04-13T15:04:50.943Z,9.20
2019-04-13T15:07:25.019Z,9.10
2019-04-13T15:09:56.318Z,9.10
2019-04-13T15:12:26.842Z,9.10
2019-04-13T15:15:10.000Z,9.20
2019-04-13T15:17:56.596Z,9.20
2019-04-13T15:20:35.548Z,9.20
2019-04-13T15:23:01.942Z,9.10
2019-04-13T15:25:33.263Z,9.10
2019-04-13T15:28:04.188Z,9.10
2019-04-13T15:30:35.416Z,9.10
2019-04-13T15:33:11.915Z,9.10
2019-04-13T15:35:38.973Z,9.10
2019-04-13T15:38:09.770Z,9.10
2019-04-13T15:40:40.759Z,9.10
2019-04-13T15:43:18.410Z,9.00
2019-04-13T15:45:47.487Z,9.10
2019-04-13T15:48:18.227Z,9.00
2019-04-13T15:50:49.044Z,9.10
2019-04-13T15:53:23.281Z,9.20
2019-04-13T15:55:56.719Z,9.20
2019-04-13T15:58:27.090Z,9.20
2019-04-13T16:01:18.063Z,9.10
2019-04-13T16:03:48.844Z,9.10
2019-04-13T16:06:19.731Z,9.10
2019-04-13T16:09:09.818Z,9.00
2019-04-13T16:11:48.182Z,8.90
2019-04-13T16:14:15.885Z,8.80
2019-04-13T16:16:47.790Z,8.70
2019-04-13T16:19:18.605Z,8.60
2019-04-13T16:21:49.613Z,8.50
2019-04-13T16:24:26.384Z,8.40
2019-04-13T16:27:01.219Z,8.30
2019-04-13T16:29:49.482Z,8.30
2019-04-13T16:32:42.646Z,8.30
2019-04-13T16:35:33.599Z,8.40
2019-04-13T16:38:07.346Z,8.30
2019-04-13T16:40:44.398Z,8.20
2019-04-13T16:43:11.665Z,8.20
2019-04-13T16:45:48.629Z,8.30
2019-04-13T16:48:39.672Z,8.30
2019-04-13T16:51:41.327Z,8.30
2019-04-13T16:54:45.504Z,8.20
2019-04-13T16:57:27.673Z,8.10
2019-04-13T17:00:39.693Z,8.10
2019-04-13T17:03:33.570Z,8.10
2019-04-13T17:06:06.880Z,7.90
2019-04-13T17:08:41.271Z,7.70
2019-04-13T17:11:12.190Z,7.60
2019-04-13T17:13:43.325Z,7.60
2019-04-13T17:16:16.993Z,7.60
2019-04-13T17:19:13.439Z,7.50
2019-04-13T17:21:50.774Z,7.50
2019-04-13T17:24:30.577Z,7.40
2019-04-13T17:27:19.412Z,7.30
2019-04-13T17:30:23.982Z,7.30
2019-04-13T17:33:00.372Z,7.30
2019-04-13T17:35:30.905Z,7.30
2019-04-13T17:38:04.924Z,7.20
2019-04-13T17:40:42.753Z,7.20
2019-04-13T17:43:47.338Z,7.20
2019-04-13T17:46:36.842Z,7.20
2019-04-13T17:49:30.122Z,7.10
2019-04-13T17:52:19.115Z,7.10
2019-04-13T17:54:56.133Z,7.00
2019-04-13T17:57:38.010Z,7.00
2019-04-13T18:00:27.159Z,7.00
2019-04-13T18:03:15.620Z,7.00
2019-04-13T18:06:08.805Z,7.00
2019-04-13T18:08:58.162Z,7.00
2019-04-13T18:11:59.318Z,7.00
2019-04-13T18:14:38.138Z,7.00
2019-04-13T18:17:43.164Z,7.00
2019-04-13T18:20:13.612Z,6.90
2019-04-13T18:22:47.003Z,6.90
2019-04-13T18:25:30.036Z,6.90
2019-04-13T18:27:52.373Z,6.80
2019-04-13T18:30:31.141Z,6.80
2019-04-13T18:32:57.463Z,6.80
2019-04-13T18:35:35.533Z,6.80
2019-04-13T18:38:10.287Z,6.80
2019-04-13T18:40:45.068Z,6.80
2019-04-13T18:43:25.541Z,6.70
2019-04-13T18:45:51.374Z,6.70
2019-04-13T18:48:25.045Z,6.70
2019-04-13T18:50:56.364Z,6.70
2019-04-13T18:53:30.602Z,6.60
2019-04-13T18:56:12.467Z,6.60
2019-04-13T18:58:50.104Z,6.60
2019-04-13T19:01:25.012Z,6.60
2019-04-13T19:04:05.880Z,6.50
2019-04-13T19:06:40.179Z,6.50
2019-04-13T19:09:14.083Z,6.40
2019-04-13T19:11:47.979Z,6.40
2019-04-13T19:14:28.062Z,6.40
2019-04-13T19:17:12.213Z,6.30
2019-04-13T19:19:47.673Z,6.30
2019-04-13T19:22:22.859Z,6.30
2019-04-13T19:25:01.147Z,6.20
2019-04-13T19:27:42.977Z,6.20
2019-04-13T19:30:16.402Z,6.20
2019-04-13T19:32:54.077Z,6.20
2019-04-13T19:35:25.788Z,6.10
2019-04-13T19:37:56.509Z,6.10
2019-04-13T19:40:28.101Z,6.00
2019-04-13T19:43:02.408Z,6.00
2019-04-13T19:45:33.256Z,6.00
2019-04-13T19:48:05.197Z,6.00
2019-04-13T19:50:36.264Z,5.90
2019-04-13T19:53:17.106Z,5.90
2019-04-13T19:55:49.667Z,5.90
2019-04-13T19:58:20.850Z,5.80
2019-04-13T20:00:53.238Z,5.80
2019-04-13T20:03:24.861Z,5.70
2019-04-13T20:06:04.209Z,5.70
2019-04-13T20:08:33.795Z,5.70
2019-04-13T20:11:06.182Z,5.60
2019-04-13T20:13:46.985Z,5.60
2019-04-13T20:16:10.328Z,5.50
2019-04-13T20:18:46.973Z,5.50
2019-04-13T20:21:18.220Z,5.40
2019-04-13T20:23:51.481Z,5.40
2019-04-13T20:26:27.195Z,5.30
2019-04-13T20:28:57.224Z,5.30
2019-04-13T20:31:29.150Z,5.30
2019-04-13T20:34:01.085Z,5.30
2019-04-13T20:36:35.014Z,5.20
2019-04-13T20:39:07.016Z,5.20
2019-04-13T20:41:48.050Z,5.20
2019-04-13T20:44:16.526Z,5.20
2019-04-13T20:46:47.341Z,5.20
2019-04-13T20:49:19.451Z,5.10
2019-04-13T20:51:51.781Z,5.10
2019-04-13T20:54:22.393Z,5.10
2019-04-13T20:56:59.937Z,5.10
2019-04-13T20:59:32.356Z,5.10
2019-04-13T21:02:03.214Z,5.10
2019-04-13T21:04:37.026Z,5.10
2019-04-13T21:07:09.723Z,5.10
2019-04-13T21:09:42.243Z,5.10
2019-04-13T21:12:14.388Z,5.10
2019-04-13T21:14:48.519Z,5.00
2019-04-13T21:17:18.237Z,5.00
2019-04-13T21:19:50.870Z,5.00
2019-04-13T21:22:22.456Z,5.00
2019-04-13T21:24:57.559Z,4.90
2019-04-13T21:27:45.132Z,4.90
2019-04-13T21:30:16.506Z,4.80
2019-04-13T21:32:47.112Z,4.80
2019-04-13T21:35:21.031Z,4.80
2019-04-13T21:37:53.042Z,4.70
2019-04-13T21:40:25.294Z,4.70
2019-04-13T21:42:59.863Z,4.70
2019-04-13T21:45:34.200Z,4.70
2019-04-13T21:48:10.909Z,4.70
2019-04-13T21:51:02.991Z,4.60
2019-04-13T21:54:03.936Z,4.60
2019-04-13T21:56:36.209Z,4.60
2019-04-13T21:59:08.553Z,4.60
2019-04-13T22:02:20.289Z,4.60
2019-04-13T22:04:52.364Z,4.50
2019-04-13T22:07:30.977Z,4.50
2019-04-13T22:10:02.941Z,4.60
2019-04-13T22:12:44.176Z,4.50
2019-04-13T22:15:22.362Z,4.50
2019-04-13T22:18:21.369Z,4.50
2019-04-13T22:20:56.379Z,4.50
2019-04-13T22:23:28.136Z,4.50
2019-04-13T22:26:00.688Z,4.50
2019-04-13T22:28:43.109Z,4.50
2019-04-13T22:31:29.345Z,4.50
2019-04-13T22:34:03.285Z,4.50
2019-04-13T22:36:46.727Z,4.50
2019-04-13T22:39:22.246Z,4.50
2019-04-13T22:42:10.025Z,4.50
2019-04-13T22:44:52.084Z,4.40
2019-04-13T22:47:15.100Z,4.40
2019-04-13T22:50:08.976Z,4.40
2019-04-13T22:53:10.363Z,4.30
2019-04-13T22:56:24.355Z,4.30
2019-04-13T22:58:56.125Z,4.20
2019-04-13T23:01:29.172Z,4.20
2019-04-13T23:04:10.326Z,4.20
2019-04-13T23:06:42.486Z,4.20
2019-04-13T23:09:13.430Z,4.20
2019-04-13T23:12:07.079Z,4.20
2019-04-13T23:15:04.706Z,4.30
2019-04-13T23:17:50.907Z,4.30
2019-04-13T23:20:25.527Z,4.30
2019-04-13T23:23:03.193Z,4.20
2019-04-13T23:25:33.789Z,4.20
2019-04-13T23:28:12.441Z,4.20
2019-04-13T23:30:46.909Z,4.20
2019-04-13T23:33:17.763Z,4.20
2019-04-13T23:36:07.110Z,4.20
2019-04-13T23:38:37.848Z,4.10
2019-04-13T23:41:14.577Z,4.10
2019-04-13T23:43:47.320Z,4.00
2019-04-13T23:46:17.979Z,4.00
2019-04-13T23:48:50.514Z,3.90
2019-04-13T23:51:23.308Z,3.90
2019-04-13T23:53:54.189Z,3.90
2019-04-13T23:56:34.527Z,3.80
2019-04-13T23:59:21.803Z,3.80
